createdAt,value
2022-12-22T00:02:37.267Z,78.54
2022-12-22T00:05:36.550Z,78.23
2022-12-22T00:08:22.186Z,78.02
2022-12-22T00:11:07.906Z,78.20
2022-12-22T00:13:54.150Z,77.86
2022-12-22T00:16:48.506Z,77.09
2022-12-22T00:19:34.115Z,76.02
2022-12-22T00:22:24.403Z,76.83
2022-12-22T00:25:10.139Z,78.04
2022-12-22T00:27:55.740Z,82.98
2022-12-22T00:30:41.438Z,83.05
2022-12-22T00:33:30.682Z,87.21
2022-12-22T00:36:16.267Z,88.19
2022-12-22T00:39:02.047Z,84.59
2022-12-22T00:41:47.776Z,82.92
2022-12-22T00:44:33.297Z,81.32
2022-12-22T00:47:18.929Z,80.43
2022-12-22T00:50:07.696Z,80.11
2022-12-22T00:52:54.345Z,80.32
2022-12-22T00:55:48.483Z,79.06
2022-12-22T00:58:37.645Z,79.99
2022-12-22T01:01:23.445Z,78.98
2022-12-22T01:04:09.163Z,81.56
2022-12-22T01:06:55.376Z,83.76
2022-12-22T01:09:42.034Z,80.71
2022-12-22T01:12:38.532Z,81.17
2022-12-22T01:15:37.061Z,83.69
2022-12-22T01:18:23.407Z,84.53
2022-12-22T01:21:09.062Z,86.95
2022-12-22T01:23:55.169Z,83.43
2022-12-22T01:26:42.358Z,84.89
2022-12-22T01:29:28.107Z,82.45
2022-12-22T01:32:13.818Z,84.50
2022-12-22T01:34:59.783Z,82.50
2022-12-22T01:37:45.964Z,82.69
2022-12-22T01:40:41.863Z,82.00
2022-12-22T01:43:40.116Z,79.95
2022-12-22T01:46:42.928Z,80.97
2022-12-22T01:49:33.881Z,82.05
2022-12-22T01:52:20.486Z,85.93
2022-12-22T01:55:07.284Z,83.53
2022-12-22T01:57:54.196Z,83.17
2022-12-22T02:00:39.885Z,85.02
2022-12-22T02:03:34.680Z,84.27
2022-12-22T02:06:32.626Z,84.64
2022-12-22T02:09:28.186Z,89.13
2022-12-22T02:12:27.969Z,85.33
2022-12-22T02:15:32.089Z,86.07
2022-12-22T02:18:31.015Z,89.75
2022-12-22T02:21:24.905Z,87.66
2022-12-22T02:24:17.172Z,86.67
2022-12-22T02:27:09.093Z,87.15
2022-12-22T02:29:58.422Z,87.57
2022-12-22T02:32:45.152Z,85.94
2022-12-22T02:35:34.346Z,84.79
2022-12-22T02:38:47.436Z,84.97
2022-12-22T02:42:06.314Z,84.34
2022-12-22T02:45:27.366Z,82.01
2022-12-22T02:48:28.687Z,83.51
2022-12-22T02:51:24.365Z,87.93
2022-12-22T02:54:12.546Z,85.61
2022-12-22T02:57:00.344Z,85.92
2022-12-22T02:59:45.995Z,88.77
2022-12-22T03:02:32.824Z,88.99
2022-12-22T03:05:18.971Z,88.62
2022-12-22T03:08:08.332Z,88.60
2022-12-22T03:10:54.551Z,90.44
2022-12-22T03:13:40.859Z,88.25
2022-12-22T03:16:26.595Z,88.68
2022-12-22T03:19:12.565Z,92.20
2022-12-22T03:21:58.279Z,89.11
2022-12-22T03:24:44.195Z,92.74
2022-12-22T03:27:12.205Z,93.10
2022-12-22T03:29:39.744Z,86.96
2022-12-22T03:32:08.849Z,88.74
2022-12-22T03:34:38.368Z,89.16
2022-12-22T03:37:06.016Z,87.28
2022-12-22T03:39:33.089Z,88.56
2022-12-22T03:42:18.942Z,86.54
2022-12-22T03:45:04.526Z,86.93
2022-12-22T03:47:32.211Z,87.54
2022-12-22T03:49:59.095Z,88.07
2022-12-22T03:52:26.147Z,85.82
2022-12-22T03:54:53.050Z,85.75
2022-12-22T03:57:20.056Z,84.96
2022-12-22T03:59:46.966Z,85.45
2022-12-22T04:02:14.038Z,83.95
2022-12-22T04:04:41.034Z,83.50
2022-12-22T04:07:07.927Z,83.80
2022-12-22T04:09:34.890Z,83.54
2022-12-22T04:12:20.324Z,83.17
2022-12-22T04:14:47.305Z,85.22
2022-12-22T04:17:14.201Z,87.55
2022-12-22T04:19:41.483Z,86.34
2022-12-22T04:22:08.998Z,85.31
2022-12-22T04:24:35.919Z,84.54
2022-12-22T04:27:02.814Z,84.60
2022-12-22T04:29:29.754Z,87.87
2022-12-22T04:31:56.817Z,86.61
2022-12-22T04:34:23.946Z,86.00
2022-12-22T04:36:50.845Z,87.49
2022-12-22T04:39:17.752Z,86.06
2022-12-22T04:41:45.394Z,88.76
2022-12-22T04:44:12.323Z,88.86
2022-12-22T04:46:39.258Z,89.76
2022-12-22T04:49:06.144Z,90.95
2022-12-22T04:51:33.124Z,92.39
2022-12-22T04:54:00.049Z,89.66
2022-12-22T04:56:27.084Z,92.19
2022-12-22T04:58:53.975Z,92.23
2022-12-22T05:01:21.313Z,89.90
2022-12-22T05:03:48.529Z,89.67
2022-12-22T05:06:16.410Z,88.75
2022-12-22T05:08:43.372Z,87.78
2022-12-22T05:11:10.658Z,89.61
2022-12-22T05:13:37.763Z,88.70
2022-12-22T05:16:10.609Z,91.09
2022-12-22T05:18:39.422Z,89.47
2022-12-22T05:21:18.548Z,88.67
2022-12-22T05:23:46.210Z,90.34
2022-12-22T05:26:14.862Z,89.88
2022-12-22T05:28:42.832Z,91.50
2022-12-22T05:31:14.249Z,91.93
2022-12-22T05:33:41.164Z,92.08
2022-12-22T05:36:08.495Z,88.28
2022-12-22T05:38:35.416Z,88.81
2022-12-22T05:41:04.635Z,88.61
2022-12-22T05:43:32.920Z,87.73
2022-12-22T05:46:08.669Z,89.64
2022-12-22T05:48:39.169Z,89.71
2022-12-22T05:51:08.797Z,89.71
2022-12-22T05:53:35.914Z,94.67
2022-12-22T05:56:02.902Z,94.28
2022-12-22T05:58:29.825Z,92.90
2022-12-22T06:00:58.716Z,89.58
2022-12-22T06:03:26.813Z,91.59
2022-12-22T06:05:54.413Z,90.11
2022-12-22T06:08:21.573Z,89.91
2022-12-22T06:10:50.631Z,87.73
2022-12-22T06:13:17.665Z,86.44
2022-12-22T06:15:44.621Z,86.14
2022-12-22T06:18:11.974Z,85.29
2022-12-22T06:20:38.846Z,85.22
2022-12-22T06:23:05.745Z,84.36
2022-12-22T06:25:33.213Z,83.86
2022-12-22T06:28:02.882Z,83.43
2022-12-22T06:30:33.633Z,83.06
2022-12-22T06:33:01.797Z,82.71
2022-12-22T06:35:29.038Z,82.25
2022-12-22T06:37:56.225Z,82.29
2022-12-22T06:40:23.463Z,81.89
2022-12-22T06:43:09.873Z,81.42
2022-12-22T06:45:40.265Z,80.48
2022-12-22T06:48:08.410Z,81.24
2022-12-22T06:50:35.432Z,82.14
2022-12-22T06:53:03.164Z,82.93
2022-12-22T06:55:30.084Z,82.34
2022-12-22T06:57:57.078Z,80.72
2022-12-22T07:00:24.093Z,82.96
2022-12-22T07:02:51.169Z,84.96
2022-12-22T07:05:18.267Z,84.53
2022-12-22T07:07:45.504Z,84.12
2022-12-22T07:10:12.792Z,84.68
2022-12-22T07:12:39.774Z,83.55
2022-12-22T07:15:07.327Z,85.58
2022-12-22T07:17:34.395Z,85.54
2022-12-22T07:20:01.459Z,85.75
2022-12-22T07:22:30.753Z,84.24
2022-12-22T07:24:59.299Z,86.59
2022-12-22T07:27:26.338Z,89.08
2022-12-22T07:29:53.255Z,92.66
2022-12-22T07:32:20.139Z,90.40
2022-12-22T07:34:47.090Z,87.26
2022-12-22T07:37:14.204Z,86.64
2022-12-22T07:39:41.347Z,87.88
2022-12-22T07:42:29.575Z,88.86
2022-12-22T07:44:56.547Z,86.75
2022-12-22T07:47:23.740Z,88.00
2022-12-22T07:50:10.198Z,91.46
2022-12-22T07:52:37.312Z,91.05
2022-12-22T07:55:04.434Z,86.81
2022-12-22T07:57:31.552Z,88.06
2022-12-22T07:59:58.553Z,89.53
2022-12-22T08:02:25.761Z,90.48
2022-12-22T08:04:52.765Z,90.60
2022-12-22T08:07:19.744Z,90.24
2022-12-22T08:09:46.724Z,88.79
2022-12-22T08:12:15.388Z,87.95
2022-12-22T08:14:46.202Z,92.94
2022-12-22T08:17:13.503Z,92.82
2022-12-22T08:19:41.124Z,90.82
2022-12-22T08:22:08.146Z,92.60
2022-12-22T08:24:35.089Z,94.50
2022-12-22T08:27:06.313Z,93.73
2022-12-22T08:29:38.866Z,91.89
2022-12-22T08:32:05.929Z,90.47
2022-12-22T08:34:33.134Z,94.26
2022-12-22T08:37:02.245Z,94.53
2022-12-22T08:39:33.043Z,93.04
2022-12-22T08:42:00.735Z,94.02
2022-12-22T08:44:31.572Z,93.41
2022-12-22T08:47:00.334Z,94.49
2022-12-22T08:49:27.743Z,95.24
2022-12-22T08:51:54.996Z,92.27
2022-12-22T08:54:22.288Z,95.05
2022-12-22T08:56:49.829Z,96.24
2022-12-22T08:59:17.549Z,94.34
2022-12-22T09:01:50.886Z,94.49
2022-12-22T09:04:21.283Z,95.88
2022-12-22T09:06:49.157Z,94.21
2022-12-22T09:09:16.782Z,95.12
2022-12-22T09:11:44.016Z,96.37
2022-12-22T09:14:12.649Z,95.06
2022-12-22T09:16:39.993Z,93.62
2022-12-22T09:19:07.255Z,93.89
2022-12-22T09:21:35.128Z,93.26
2022-12-22T09:24:03.556Z,93.57
2022-12-22T09:26:30.702Z,92.60
2022-12-22T09:28:58.194Z,90.98
2022-12-22T09:31:26.336Z,91.32
2022-12-22T09:33:53.680Z,87.96
2022-12-22T09:36:24.093Z,87.94
2022-12-22T09:38:53.635Z,87.71
2022-12-22T09:41:45.924Z,88.06
2022-12-22T09:44:38.479Z,91.87
2022-12-22T09:47:36.343Z,88.66
2022-12-22T09:50:05.444Z,88.69
2022-12-22T09:52:35.558Z,90.26
2022-12-22T09:55:04.834Z,87.66
2022-12-22T09:57:33.043Z,86.13
2022-12-22T10:00:28.593Z,90.89
2022-12-22T10:03:04.216Z,87.96
2022-12-22T10:05:40.324Z,85.43
2022-12-22T10:08:16.973Z,84.51
2022-12-22T10:10:43.946Z,87.65
2022-12-22T10:13:19.998Z,85.38
2022-12-22T10:15:47.238Z,86.74
2022-12-22T10:18:21.863Z,87.44
2022-12-22T10:21:13.932Z,86.65
2022-12-22T10:23:46.545Z,85.25
2022-12-22T10:26:34.084Z,84.70
2022-12-22T10:29:09.381Z,86.47
2022-12-22T10:31:55.021Z,82.93
2022-12-22T10:34:22.184Z,84.55
2022-12-22T10:36:51.802Z,83.93
2022-12-22T10:39:28.339Z,85.25
2022-12-22T10:42:01.298Z,87.37
2022-12-22T10:44:37.365Z,87.39
2022-12-22T10:47:19.745Z,88.35
2022-12-22T10:49:50.053Z,88.36
2022-12-22T10:52:32.326Z,88.00
2022-12-22T10:55:33.070Z,89.88
2022-12-22T10:58:21.813Z,85.56
2022-12-22T11:01:03.096Z,86.38
2022-12-22T11:03:32.028Z,86.56
2022-12-22T11:06:01.103Z,88.46
2022-12-22T11:08:30.491Z,88.76
2022-12-22T11:11:05.631Z,89.33
2022-12-22T11:13:44.638Z,89.19
2022-12-22T11:16:38.402Z,87.46
2022-12-22T11:19:56.158Z,89.23
2022-12-22T11:22:46.163Z,87.95
2022-12-22T11:25:19.588Z,84.58
2022-12-22T11:28:11.143Z,87.77
2022-12-22T11:31:06.509Z,83.70
2022-12-22T11:33:52.345Z,83.15
2022-12-22T11:36:30.505Z,80.00
2022-12-22T11:39:15.103Z,81.46
2022-12-22T11:41:46.539Z,78.71
2022-12-22T11:44:41.344Z,78.60
2022-12-22T11:47:14.524Z,79.07
2022-12-22T11:50:25.451Z,75.10
2022-12-22T11:53:06.031Z,78.83
2022-12-22T11:55:36.077Z,79.10
2022-12-22T11:58:14.879Z,79.88
2022-12-22T12:01:25.595Z,82.25
2022-12-22T12:04:14.718Z,79.45
2022-12-22T12:06:55.074Z,82.30
2022-12-22T12:09:59.199Z,79.75
2022-12-22T12:13:00.921Z,79.90
2022-12-22T12:15:32.833Z,80.22
2022-12-22T12:18:12.733Z,84.30
2022-12-22T12:20:46.618Z,84.89
2022-12-22T12:23:50.690Z,83.48
2022-12-22T12:26:57.083Z,86.46
2022-12-22T12:29:41.236Z,83.20
2022-12-22T12:32:45.343Z,82.63
2022-12-22T12:35:35.967Z,84.01
2022-12-22T12:38:47.928Z,85.46
2022-12-22T12:41:08.177Z,85.74
2022-12-22T12:43:36.294Z,86.57
2022-12-22T12:46:42.179Z,90.40
2022-12-22T12:49:50.843Z,89.97
2022-12-22T12:52:17.765Z,93.25
2022-12-22T12:54:49.493Z,93.33
2022-12-22T12:57:30.926Z,91.49
2022-12-22T12:59:59.851Z,89.41
2022-12-22T13:02:38.297Z,90.33
2022-12-22T13:05:14.823Z,92.31
2022-12-22T13:08:14.679Z,95.02
2022-12-22T13:10:43.182Z,92.73
2022-12-22T13:13:13.835Z,93.47
2022-12-22T13:15:42.976Z,94.20
2022-12-22T13:18:15.947Z,94.07
2022-12-22T13:20:43.153Z,96.58
2022-12-22T13:23:15.321Z,95.52
2022-12-22T13:25:48.211Z,94.07
2022-12-22T13:28:17.587Z,94.58
2022-12-22T13:30:50.715Z,93.63
2022-12-22T13:33:21.268Z,91.86
2022-12-22T13:35:56.545Z,94.00
2022-12-22T13:38:38.013Z,95.03
2022-12-22T13:41:26.623Z,92.23
2022-12-22T13:44:07.015Z,93.26
2022-12-22T13:46:37.965Z,92.84
2022-12-22T13:49:10.356Z,91.84
2022-12-22T13:51:38.774Z,92.77
2022-12-22T13:54:17.558Z,90.60
2022-12-22T13:56:48.167Z,91.97
2022-12-22T13:59:33.520Z,94.87
2022-12-22T14:02:18.104Z,92.93
2022-12-22T14:05:23.805Z,91.96
2022-12-22T14:07:59.895Z,92.68
2022-12-22T14:10:34.243Z,93.45
2022-12-22T14:13:05.804Z,92.08
2022-12-22T14:15:33.211Z,93.30
2022-12-22T14:18:00.503Z,92.83
2022-12-22T14:20:40.390Z,92.71
2022-12-22T14:23:22.217Z,93.23
2022-12-22T14:25:50.709Z,91.84
2022-12-22T14:28:36.340Z,91.61
2022-12-22T14:31:05.938Z,92.74
2022-12-22T14:33:35.027Z,91.96
2022-12-22T14:36:06.750Z,92.45
2022-12-22T14:38:48.367Z,90.26
2022-12-22T14:41:38.134Z,90.84
2022-12-22T14:44:05.697Z,92.92
2022-12-22T14:46:38.619Z,93.32
2022-12-22T14:49:06.387Z,92.01
2022-12-22T14:51:33.337Z,90.81
2022-12-22T14:54:03.151Z,92.77
2022-12-22T14:56:29.944Z,92.14
2022-12-22T14:59:23.917Z,91.66
2022-12-22T15:02:21.156Z,90.02
2022-12-22T15:04:48.441Z,89.06
2022-12-22T15:07:54.445Z,92.34
2022-12-22T15:10:20.699Z,91.38
2022-12-22T15:12:49.104Z,90.28
2022-12-22T15:15:21.695Z,87.24
2022-12-22T15:17:52.286Z,86.64
2022-12-22T15:20:22.744Z,86.46
2022-12-22T15:22:50.238Z,87.08
2022-12-22T15:25:25.221Z,86.85
2022-12-22T15:27:52.638Z,85.11
2022-12-22T15:30:28.935Z,87.55
2022-12-22T15:32:57.163Z,85.20
2022-12-22T15:35:33.151Z,84.05
2022-12-22T15:38:00.690Z,84.67
2022-12-22T15:40:28.927Z,84.97
2022-12-22T15:42:55.865Z,86.28
2022-12-22T15:45:23.193Z,87.59
2022-12-22T15:47:53.843Z,85.58
2022-12-22T15:50:38.666Z,87.25
2022-12-22T15:53:12.827Z,87.92
2022-12-22T15:55:43.177Z,86.73
2022-12-22T15:58:13.804Z,86.93
2022-12-22T16:00:40.779Z,87.55
2022-12-22T16:03:08.116Z,86.87
2022-12-22T16:05:35.185Z,88.41
2022-12-22T16:08:03.045Z,89.57
2022-12-22T16:10:34.307Z,89.28
2022-12-22T16:13:04.368Z,91.08
2022-12-22T16:15:33.952Z,90.88
2022-12-22T16:18:02.557Z,89.37
2022-12-22T16:20:37.784Z,88.77
2022-12-22T16:23:08.042Z,88.99
2022-12-22T16:25:39.209Z,87.32
2022-12-22T16:28:07.271Z,88.00
2022-12-22T16:30:34.829Z,86.33
2022-12-22T16:33:02.005Z,84.30
2022-12-22T16:35:33.575Z,86.27
2022-12-22T16:38:00.829Z,88.72
2022-12-22T16:40:28.575Z,87.80
2022-12-22T16:46:05.975Z,89.50
2022-12-22T16:48:42.707Z,87.80
2022-12-22T16:51:17.163Z,86.53
2022-12-22T16:53:44.209Z,89.25
2022-12-22T16:56:20.522Z,87.51
2022-12-22T16:58:48.428Z,87.28
2022-12-22T17:01:34.841Z,87.68
2022-12-22T17:04:09.935Z,90.32
2022-12-22T17:06:37.589Z,87.58
2022-12-22T17:09:07.667Z,89.46
2022-12-22T17:11:34.772Z,89.84
2022-12-22T17:14:40.534Z,86.99
2022-12-22T17:17:17.764Z,86.55
2022-12-22T17:19:45.251Z,87.19
2022-12-22T17:22:33.811Z,87.33
2022-12-22T17:25:04.726Z,89.51
2022-12-22T17:27:33.934Z,88.22
2022-12-22T17:30:05.909Z,87.61
2022-12-22T17:32:32.933Z,85.96
2022-12-22T17:34:59.875Z,85.84
2022-12-22T17:37:26.912Z,85.07
2022-12-22T17:40:00.430Z,84.03
2022-12-22T17:42:27.471Z,82.97
2022-12-22T17:44:54.412Z,83.43
2022-12-22T17:47:29.031Z,83.22
2022-12-22T17:50:00.987Z,83.05
2022-12-22T17:52:28.557Z,82.80
2022-12-22T17:54:58.080Z,82.67
2022-12-22T17:57:32.951Z,81.76
2022-12-22T18:00:00.789Z,82.04
2022-12-22T18:02:28.182Z,81.81
2022-12-22T18:04:55.304Z,81.25
2022-12-22T18:07:24.989Z,80.96
2022-12-22T18:09:59.281Z,80.98
2022-12-22T18:12:26.891Z,80.65
2022-12-22T18:14:54.585Z,80.37
2022-12-22T18:17:35.577Z,80.05
2022-12-22T18:20:03.130Z,79.76
2022-12-22T18:22:30.957Z,79.89
2022-12-22T18:24:58.096Z,79.82
2022-12-22T18:27:25.146Z,79.46
2022-12-22T18:29:52.195Z,79.34
2022-12-22T18:32:27.019Z,79.51
2022-12-22T18:34:56.828Z,79.18
2022-12-22T18:37:23.794Z,79.12
2022-12-22T18:39:50.786Z,79.25
2022-12-22T18:42:23.443Z,79.02
2022-12-22T18:44:51.600Z,78.86
2022-12-22T18:47:18.900Z,78.26
2022-12-22T18:49:46.176Z,79.23
2022-12-22T18:52:19.551Z,81.89
2022-12-22T18:54:47.491Z,84.69
2022-12-22T18:57:16.768Z,85.71
2022-12-22T18:59:44.368Z,83.25
2022-12-22T19:02:26.548Z,86.04
2022-12-22T19:04:54.669Z,82.49
2022-12-22T19:07:24.564Z,88.47
2022-12-22T19:09:51.826Z,88.74
2022-12-22T19:12:25.467Z,87.32
2022-12-22T19:14:57.553Z,90.95
2022-12-22T19:17:29.083Z,89.68
2022-12-22T19:19:57.077Z,88.53
2022-12-22T19:22:24.320Z,90.61
2022-12-22T19:24:51.818Z,90.66
2022-12-22T19:27:27.019Z,90.77
2022-12-22T19:30:03.030Z,89.59
2022-12-22T19:32:36.111Z,88.28
2022-12-22T19:35:03.221Z,87.41
2022-12-22T19:37:30.182Z,86.82
2022-12-22T19:39:57.085Z,86.01
2022-12-22T19:42:25.563Z,85.38
2022-12-22T19:44:52.521Z,86.97
2022-12-22T19:47:22.159Z,87.58
2022-12-22T19:49:49.144Z,90.61
2022-12-22T19:52:16.065Z,95.85
2022-12-22T19:54:42.995Z,99.09
2022-12-22T19:57:18.431Z,99.67
2022-12-22T19:59:48.975Z,97.37
2022-12-22T20:02:28.310Z,97.68
2022-12-22T20:04:56.315Z,95.68
2022-12-22T20:07:26.164Z,95.72
2022-12-22T20:09:52.975Z,93.73
2022-12-22T20:12:22.997Z,91.89
2022-12-22T20:14:49.999Z,90.99
2022-12-22T20:17:16.990Z,93.94
2022-12-22T20:19:43.969Z,92.89
2022-12-22T20:22:16.393Z,91.33
2022-12-22T20:24:45.362Z,90.51
2022-12-22T20:27:23.392Z,89.68
2022-12-22T20:29:50.429Z,92.42
2022-12-22T20:32:22.299Z,93.43
2022-12-22T20:34:55.680Z,96.82
2022-12-22T20:37:22.698Z,95.58
2022-12-22T20:39:49.673Z,94.22
2022-12-22T20:42:22.675Z,96.24
2022-12-22T20:45:01.559Z,98.41
2022-12-22T20:47:28.873Z,94.75
2022-12-22T20:49:55.725Z,92.09
2022-12-22T20:52:22.586Z,90.72
2022-12-22T20:54:49.600Z,89.46
2022-12-22T20:57:17.212Z,88.98
2022-12-22T20:59:44.655Z,88.07
2022-12-22T21:02:37.680Z,87.22
2022-12-22T21:05:05.104Z,86.68
2022-12-22T21:07:32.251Z,86.50
2022-12-22T21:09:59.377Z,85.82
2022-12-22T21:12:26.235Z,85.10
2022-12-22T21:14:53.101Z,84.18
2022-12-22T21:17:20.125Z,83.20
2022-12-22T21:19:47.334Z,82.98
2022-12-22T21:22:14.396Z,82.85
2022-12-22T21:24:42.034Z,82.76
2022-12-22T21:27:16.110Z,82.52
2022-12-22T21:29:50.457Z,82.75
2022-12-22T21:32:19.100Z,82.41
2022-12-22T21:34:45.952Z,85.65
2022-12-22T21:37:19.129Z,84.54
2022-12-22T21:39:46.025Z,83.75
2022-12-22T21:42:16.719Z,83.73
2022-12-22T21:44:45.021Z,82.51
2022-12-22T21:47:19.845Z,83.95
2022-12-22T21:49:46.862Z,83.24
2022-12-22T21:52:13.706Z,82.65
2022-12-22T21:54:40.583Z,82.79
2022-12-22T21:57:11.399Z,88.22
2022-12-22T21:59:38.236Z,88.83
2022-12-22T22:02:14.021Z,85.96
2022-12-22T22:04:40.925Z,85.92
2022-12-22T22:07:07.970Z,87.35
2022-12-22T22:09:34.927Z,89.84
2022-12-22T22:12:26.412Z,90.20
2022-12-22T22:14:55.028Z,87.72
2022-12-22T22:17:21.849Z,90.07
2022-12-22T22:19:48.704Z,88.88
2022-12-22T22:22:15.685Z,89.22
2022-12-22T22:24:42.506Z,87.87
2022-12-22T22:27:09.328Z,91.66
2022-12-22T22:29:36.268Z,91.55
2022-12-22T22:32:03.212Z,89.41
2022-12-22T22:34:30.145Z,90.30
2022-12-22T22:36:57.070Z,87.77
2022-12-22T22:39:24.267Z,86.70
2022-12-22T22:41:51.138Z,87.93
2022-12-22T22:44:18.129Z,87.37
2022-12-22T22:46:45.037Z,88.38
2022-12-22T22:49:11.992Z,86.64
2022-12-22T22:51:38.979Z,86.69
2022-12-22T22:54:05.852Z,85.28
2022-12-22T22:56:32.867Z,86.60
2022-12-22T22:59:00.136Z,87.50
2022-12-22T23:01:29.197Z,85.40
2022-12-22T23:03:56.194Z,84.38
2022-12-22T23:06:23.428Z,84.73
2022-12-22T23:08:50.931Z,84.24
2022-12-22T23:11:17.814Z,83.07
2022-12-22T23:13:45.596Z,81.41
2022-12-22T23:16:12.562Z,82.56
2022-12-22T23:18:41.291Z,82.86
2022-12-22T23:21:09.726Z,82.79
2022-12-22T23:23:36.891Z,82.62
2022-12-22T23:26:03.947Z,82.74
2022-12-22T23:28:32.356Z,82.65
2022-12-22T23:30:59.375Z,82.35
2022-12-22T23:33:26.305Z,82.36
2022-12-22T23:35:53.676Z,82.32
2022-12-22T23:38:21.213Z,81.77
2022-12-22T23:40:53.665Z,81.69
2022-12-22T23:43:21.907Z,81.45
2022-12-22T23:45:49.053Z,81.62
2022-12-22T23:48:15.966Z,84.04
2022-12-22T23:50:46.629Z,83.51
2022-12-22T23:53:14.099Z,82.46
2022-12-22T23:55:45.061Z,81.18
2022-12-22T23:58:12.075Z,82.28
